sensor_id;sensor_type;location;lat;lon;timestamp;pressure;altitude;pressure_sealevel;temperature;humidity
61384;BME280;63511;49.346;8.798;2023-10-09T00:00:31;100841.00;;;15.29;92.22
61384;BME280;63511;49.346;8.798;2023-10-09T00:03:22;100831.91;;;15.18;93.18
61384;BME280;63511;49.346;8.798;2023-10-09T00:05:49;100829.69;;;15.24;93.14
61384;BME280;63511;49.346;8.798;2023-10-09T00:08:18;100844.41;;;15.45;91.89
61384;BME280;63511;49.346;8.798;2023-10-09T00:10:46;100835.03;;;15.29;92.13
61384;BME280;63511;49.346;8.798;2023-10-09T00:13:18;100829.97;;;15.29;92.25
61384;BME280;63511;49.346;8.798;2023-10-09T00:15:44;100800.88;;;14.95;96.83
61384;BME280;63511;49.346;8.798;2023-10-09T00:18:17;100822.09;;;15.10;96.08
61384;BME280;63511;49.346;8.798;2023-10-09T00:20:49;100812.34;;;15.17;94.57
61384;BME280;63511;49.346;8.798;2023-10-09T00:23:20;100822.69;;;15.20;93.77
61384;BME280;63511;49.346;8.798;2023-10-09T00:25:50;100816.13;;;15.09;95.15
61384;BME280;63511;49.346;8.798;2023-10-09T00:28:33;100823.72;;;15.24;93.54
61384;BME280;63511;49.346;8.798;2023-10-09T00:31:00;100821.63;;;15.31;93.29
61384;BME280;63511;49.346;8.798;2023-10-09T00:33:29;100801.31;;;15.17;93.86
61384;BME280;63511;49.346;8.798;2023-10-09T00:35:58;100817.31;;;15.30;93.33
61384;BME280;63511;49.346;8.798;2023-10-09T00:38:34;100802.47;;;15.07;94.65
61384;BME280;63511;49.346;8.798;2023-10-09T00:41:01;100794.47;;;14.86;97.35
61384;BME280;63511;49.346;8.798;2023-10-09T00:43:36;100814.03;;;15.02;96.44
61384;BME280;63511;49.346;8.798;2023-10-09T00:46:03;100817.34;;;15.16;96.47
61384;BME280;63511;49.346;8.798;2023-10-09T00:48:34;100803.94;;;15.04;98.54
61384;BME280;63511;49.346;8.798;2023-10-09T00:51:06;100819.09;;;15.31;94.91
61384;BME280;63511;49.346;8.798;2023-10-09T00:53:41;100785.69;;;15.11;96.31
61384;BME280;63511;49.346;8.798;2023-10-09T00:56:08;100794.97;;;15.10;97.46
61384;BME280;63511;49.346;8.798;2023-10-09T00:58:43;100782.00;;;15.06;97.66
61384;BME280;63511;49.346;8.798;2023-10-09T01:01:11;100804.19;;;15.23;96.92
61384;BME280;63511;49.346;8.798;2023-10-09T01:03:41;100780.97;;;15.02;100.00
61384;BME280;63511;49.346;8.798;2023-10-09T01:06:10;100781.25;;;14.92;100.00
61384;BME280;63511;49.346;8.798;2023-10-09T01:08:46;100796.50;;;15.07;100.00
61384;BME280;63511;49.346;8.798;2023-10-09T01:11:21;100798.28;;;15.24;97.72
61384;BME280;63511;49.346;8.798;2023-10-09T01:13:49;100797.16;;;15.34;95.49
61384;BME280;63511;49.346;8.798;2023-10-09T01:16:36;100800.75;;;15.37;94.93
61384;BME280;63511;49.346;8.798;2023-10-09T01:19:02;100768.13;;;15.15;96.74
61384;BME280;63511;49.346;8.798;2023-10-09T01:21:39;100746.06;;;14.85;99.83
61384;BME280;63511;49.346;8.798;2023-10-09T01:24:07;100770.97;;;14.91;100.00
61384;BME280;63511;49.346;8.798;2023-10-09T01:26:35;100780.63;;;14.96;100.00
61384;BME280;63511;49.346;8.798;2023-10-09T01:29:09;100796.00;;;15.28;97.10
61384;BME280;63511;49.346;8.798;2023-10-09T01:31:39;100788.44;;;15.30;95.86
61384;BME280;63511;49.346;8.798;2023-10-09T01:34:09;100784.69;;;15.23;95.63
61384;BME280;63511;49.346;8.798;2023-10-09T01:36:37;100788.66;;;15.33;95.36
61384;BME280;63511;49.346;8.798;2023-10-09T01:39:05;100766.13;;;15.10;97.73
61384;BME280;63511;49.346;8.798;2023-10-09T01:41:36;100766.47;;;15.16;97.19
61384;BME280;63511;49.346;8.798;2023-10-09T01:44:11;100777.16;;;15.25;95.63
61384;BME280;63511;49.346;8.798;2023-10-09T01:46:41;100764.63;;;15.13;97.96
61384;BME280;63511;49.346;8.798;2023-10-09T01:49:07;100758.09;;;15.02;99.19
61384;BME280;63511;49.346;8.798;2023-10-09T01:51:41;100756.72;;;15.09;98.27
61384;BME280;63511;49.346;8.798;2023-10-09T01:54:07;100750.09;;;14.96;99.39
61384;BME280;63511;49.346;8.798;2023-10-09T01:56:42;100771.13;;;15.23;96.56
61384;BME280;63511;49.346;8.798;2023-10-09T01:59:12;100760.84;;;15.21;95.35
61384;BME280;63511;49.346;8.798;2023-10-09T02:01:38;100752.88;;;15.15;94.38
61384;BME280;63511;49.346;8.798;2023-10-09T02:04:12;100746.41;;;15.06;95.54
61384;BME280;63511;49.346;8.798;2023-10-09T02:06:41;100750.06;;;15.11;95.28
61384;BME280;63511;49.346;8.798;2023-10-09T02:09:07;100743.22;;;15.10;94.75
61384;BME280;63511;49.346;8.798;2023-10-09T02:11:45;100754.38;;;15.12;95.03
61384;BME280;63511;49.346;8.798;2023-10-09T02:14:12;100738.38;;;15.14;93.94
61384;BME280;63511;49.346;8.798;2023-10-09T02:16:49;100750.31;;;15.15;95.77
61384;BME280;63511;49.346;8.798;2023-10-09T02:19:33;100742.78;;;15.17;94.35
61384;BME280;63511;49.346;8.798;2023-10-09T02:22:00;100726.97;;;14.92;95.61
61384;BME280;63511;49.346;8.798;2023-10-09T02:24:37;100723.44;;;14.89;95.83
61384;BME280;63511;49.346;8.798;2023-10-09T02:27:18;100714.22;;;14.77;97.37
61384;BME280;63511;49.346;8.798;2023-10-09T02:40:40;100727.75;;;14.76;96.43
61384;BME280;63511;49.346;8.798;2023-10-09T02:43:26;100735.81;;;14.83;94.33
61384;BME280;63511;49.346;8.798;2023-10-09T02:45:52;100725.81;;;14.72;96.61
61384;BME280;63511;49.346;8.798;2023-10-09T02:48:18;100729.84;;;14.68;97.55
61384;BME280;63511;49.346;8.798;2023-10-09T02:50:50;100724.41;;;14.77;95.63
61384;BME280;63511;49.346;8.798;2023-10-09T02:53:17;100718.19;;;14.72;95.72
61384;BME280;63511;49.346;8.798;2023-10-09T02:55:46;100700.06;;;14.51;96.86
61384;BME280;63511;49.346;8.798;2023-10-09T02:58:36;100698.09;;;14.32;99.71
61384;BME280;63511;49.346;8.798;2023-10-09T03:01:08;100727.22;;;14.67;97.03
61384;BME280;63511;49.346;8.798;2023-10-09T03:03:35;100730.91;;;14.86;93.79
61384;BME280;63511;49.346;8.798;2023-10-09T03:06:03;100714.78;;;14.86;92.39
61384;BME280;63511;49.346;8.798;2023-10-09T03:08:35;100724.41;;;14.92;93.07
61384;BME280;63511;49.346;8.798;2023-10-09T03:11:03;100706.69;;;14.78;93.03
61384;BME280;63511;49.346;8.798;2023-10-09T03:13:31;100724.84;;;14.84;93.89
61384;BME280;63511;49.346;8.798;2023-10-09T03:15:58;100719.41;;;14.78;94.02
61384;BME280;63511;49.346;8.798;2023-10-09T03:18:27;100723.19;;;14.85;93.23
61384;BME280;63511;49.346;8.798;2023-10-09T03:20:53;100705.22;;;14.67;94.18
61384;BME280;63511;49.346;8.798;2023-10-09T03:23:21;100727.50;;;14.86;92.76
61384;BME280;63511;49.346;8.798;2023-10-09T03:25:48;100706.19;;;14.69;93.82
61384;BME280;63511;49.346;8.798;2023-10-09T03:28:16;100697.50;;;14.51;95.36
61384;BME280;63511;49.346;8.798;2023-10-09T03:30:42;100678.13;;;14.24;97.78
61384;BME280;63511;49.346;8.798;2023-10-09T03:33:12;100711.84;;;14.36;95.81
61384;BME280;63511;49.346;8.798;2023-10-09T03:35:38;100701.78;;;14.23;95.63
61384;BME280;63511;49.346;8.798;2023-10-09T03:38:05;100714.38;;;14.36;94.80
61384;BME280;63511;49.346;8.798;2023-10-09T03:40:37;100688.69;;;14.02;96.89
61384;BME280;63511;49.346;8.798;2023-10-09T03:43:07;100715.44;;;14.25;95.83
61384;BME280;63511;49.346;8.798;2023-10-09T03:45:36;100692.31;;;13.78;100.00
61384;BME280;63511;49.346;8.798;2023-10-09T03:48:04;100681.44;;;13.66;100.00
61384;BME280;63511;49.346;8.798;2023-10-09T03:50:36;100734.69;;;14.21;99.80
61384;BME280;63511;49.346;8.798;2023-10-09T03:53:03;100720.84;;;14.16;99.00
61384;BME280;63511;49.346;8.798;2023-10-09T03:55:33;100730.13;;;14.43;93.87
61384;BME280;63511;49.346;8.798;2023-10-09T03:58:00;100715.09;;;14.33;93.06
61384;BME280;63511;49.346;8.798;2023-10-09T04:00:28;100712.97;;;14.26;93.75
61384;BME280;63511;49.346;8.798;2023-10-09T04:02:56;100720.22;;;14.20;94.64
61384;BME280;63511;49.346;8.798;2023-10-09T04:05:24;100696.47;;;14.05;94.46
61384;BME280;63511;49.346;8.798;2023-10-09T04:07:50;100682.34;;;13.81;95.86
61384;BME280;63511;49.346;8.798;2023-10-09T04:10:19;100706.88;;;13.95;95.84
61384;BME280;63511;49.346;8.798;2023-10-09T04:12:59;100685.94;;;13.84;95.09
61384;BME280;63511;49.346;8.798;2023-10-09T04:15:28;100707.97;;;13.98;93.61
61384;BME280;63511;49.346;8.798;2023-10-09T04:17:57;100695.25;;;13.98;93.33
61384;BME280;63511;49.346;8.798;2023-10-09T04:20:24;100680.78;;;13.83;94.30
61384;BME280;63511;49.346;8.798;2023-10-09T04:23:19;100723.13;;;14.12;92.74
61384;BME280;63511;49.346;8.798;2023-10-09T04:25:59;100703.31;;;14.06;93.20
61384;BME280;63511;49.346;8.798;2023-10-09T04:28:35;100697.34;;;14.05;92.44
61384;BME280;63511;49.346;8.798;2023-10-09T04:31:02;100698.59;;;14.12;91.37
61384;BME280;63511;49.346;8.798;2023-10-09T04:33:32;100692.09;;;14.02;91.83
61384;BME280;63511;49.346;8.798;2023-10-09T04:36:08;100700.38;;;14.13;91.38
61384;BME280;63511;49.346;8.798;2023-10-09T04:38:48;100681.84;;;13.86;93.49
61384;BME280;63511;49.346;8.798;2023-10-09T04:41:40;100673.34;;;13.86;92.19
61384;BME280;63511;49.346;8.798;2023-10-09T04:44:17;100682.88;;;13.90;92.34
61384;BME280;63511;49.346;8.798;2023-10-09T04:46:44;100694.03;;;13.92;92.55
61384;BME280;63511;49.346;8.798;2023-10-09T04:49:11;100693.03;;;13.90;92.59
61384;BME280;63511;49.346;8.798;2023-10-09T04:51:52;100673.47;;;13.74;94.73
61384;BME280;63511;49.346;8.798;2023-10-09T04:54:29;100710.78;;;14.03;92.68
61384;BME280;63511;49.346;8.798;2023-10-09T04:57:04;100714.00;;;14.15;90.38
61384;BME280;63511;49.346;8.798;2023-10-09T04:59:32;100683.50;;;13.86;93.24
61384;BME280;63511;49.346;8.798;2023-10-09T05:02:11;100665.50;;;13.68;95.52
61384;BME280;63511;49.346;8.798;2023-10-09T05:04:45;100696.97;;;13.85;93.91
61384;BME280;63511;49.346;8.798;2023-10-09T05:07:13;100687.53;;;13.82;92.61
61384;BME280;63511;49.346;8.798;2023-10-09T05:10:10;100698.72;;;13.86;92.74
61384;BME280;63511;49.346;8.798;2023-10-09T05:12:42;100713.56;;;14.08;91.90
61384;BME280;63511;49.346;8.798;2023-10-09T05:15:11;100704.34;;;13.95;94.41
61384;BME280;63511;49.346;8.798;2023-10-09T05:17:38;100677.13;;;13.65;97.01
61384;BME280;63511;49.346;8.798;2023-10-09T05:20:12;100698.34;;;13.80;97.98
61384;BME280;63511;49.346;8.798;2023-10-09T05:22:56;100728.91;;;14.09;95.08
61384;BME280;63511;49.346;8.798;2023-10-09T05:25:45;100733.66;;;14.32;92.64
61384;BME280;63511;49.346;8.798;2023-10-09T05:28:24;100725.69;;;14.26;91.73
61384;BME280;63511;49.346;8.798;2023-10-09T05:31:07;100733.13;;;14.23;93.26
61384;BME280;63511;49.346;8.798;2023-10-09T05:33:34;100743.66;;;14.29;92.03
61384;BME280;63511;49.346;8.798;2023-10-09T05:36:04;100733.91;;;14.22;93.72
61384;BME280;63511;49.346;8.798;2023-10-09T05:38:59;100736.47;;;14.22;94.75
61384;BME280;63511;49.346;8.798;2023-10-09T05:41:43;100730.84;;;14.28;94.01
61384;BME280;63511;49.346;8.798;2023-10-09T05:44:24;100722.59;;;14.17;95.10
61384;BME280;63511;49.346;8.798;2023-10-09T05:47:13;100727.84;;;14.20;95.96
61384;BME280;63511;49.346;8.798;2023-10-09T05:49:56;100741.34;;;14.47;93.36
61384;BME280;63511;49.346;8.798;2023-10-09T05:52:48;100736.31;;;14.34;93.98
61384;BME280;63511;49.346;8.798;2023-10-09T05:55:56;100723.38;;;14.16;96.94
61384;BME280;63511;49.346;8.798;2023-10-09T05:58:45;100707.44;;;14.04;98.33
61384;BME280;63511;49.346;8.798;2023-10-09T06:01:43;100747.72;;;14.40;95.58
61384;BME280;63511;49.346;8.798;2023-10-09T06:04:27;100731.78;;;14.15;98.29
61384;BME280;63511;49.346;8.798;2023-10-09T06:07:14;100742.47;;;14.37;95.73
61384;BME280;63511;49.346;8.798;2023-10-09T06:09:49;100749.84;;;14.48;95.11
61384;BME280;63511;49.346;8.798;2023-10-09T06:12:17;100744.81;;;14.34;97.73
61384;BME280;63511;49.346;8.798;2023-10-09T06:15:01;100756.69;;;14.49;96.15
61384;BME280;63511;49.346;8.798;2023-10-09T06:17:41;100739.78;;;14.36;97.98
61384;BME280;63511;49.346;8.798;2023-10-09T06:20:15;100764.56;;;14.53;98.29
61384;BME280;63511;49.346;8.798;2023-10-09T06:22:55;100760.63;;;14.73;95.34
61384;BME280;63511;49.346;8.798;2023-10-09T06:25:42;100767.63;;;14.77;94.26
61384;BME280;63511;49.346;8.798;2023-10-09T06:28:16;100760.53;;;14.86;93.02
61384;BME280;63511;49.346;8.798;2023-10-09T06:30:43;100730.53;;;14.36;99.74
61384;BME280;63511;49.346;8.798;2023-10-09T06:33:11;100760.53;;;14.86;97.23
61384;BME280;63511;49.346;8.798;2023-10-09T06:35:54;100764.28;;;15.07;93.34
61384;BME280;63511;49.346;8.798;2023-10-09T06:38:20;100775.38;;;15.24;92.19
61384;BME280;63511;49.346;8.798;2023-10-09T06:41:00;100739.50;;;14.74;95.64
61384;BME280;63511;49.346;8.798;2023-10-09T06:43:59;100755.09;;;14.95;95.38
61384;BME280;63511;49.346;8.798;2023-10-09T06:46:31;100764.56;;;15.12;95.12
61384;BME280;63511;49.346;8.798;2023-10-09T06:49:09;100751.47;;;15.06;96.72
61384;BME280;63511;49.346;8.798;2023-10-09T06:51:49;100734.66;;;14.78;99.74
61384;BME280;63511;49.346;8.798;2023-10-09T06:54:20;100753.69;;;14.85;99.55
61384;BME280;63511;49.346;8.798;2023-10-09T06:56:52;100771.06;;;15.07;99.09
61384;BME280;63511;49.346;8.798;2023-10-09T06:59:39;100770.97;;;15.36;94.97
61384;BME280;63511;49.346;8.798;2023-10-09T07:02:23;100762.69;;;15.55;93.08
61384;BME280;63511;49.346;8.798;2023-10-09T07:04:51;100741.03;;;15.16;97.32
61384;BME280;63511;49.346;8.798;2023-10-09T07:07:20;100766.63;;;15.50;95.04
61384;BME280;63511;49.346;8.798;2023-10-09T07:09:50;100774.69;;;15.72;93.45
61384;BME280;63511;49.346;8.798;2023-10-09T07:12:33;100741.41;;;15.38;95.70
61384;BME280;63511;49.346;8.798;2023-10-09T07:15:08;100738.56;;;15.17;99.09
61384;BME280;63511;49.346;8.798;2023-10-09T07:18:06;100778.88;;;15.71;94.59
61384;BME280;63511;49.346;8.798;2023-10-09T07:20:48;100782.66;;;15.94;92.67
61384;BME280;63511;49.346;8.798;2023-10-09T07:23:26;100776.38;;;16.04;91.71
61384;BME280;63511;49.346;8.798;2023-10-09T07:26:01;100745.00;;;15.72;94.59
61384;BME280;63511;49.346;8.798;2023-10-09T07:28:44;100751.59;;;15.69;96.84
61384;BME280;63511;49.346;8.798;2023-10-09T07:31:16;100743.41;;;15.58;97.69
61384;BME280;63511;49.346;8.798;2023-10-09T07:33:49;100784.03;;;16.04;94.77
61384;BME280;63511;49.346;8.798;2023-10-09T07:36:23;100777.88;;;16.16;92.17
61384;BME280;63511;49.346;8.798;2023-10-09T07:38:59;100773.91;;;16.05;92.93
61384;BME280;63511;49.346;8.798;2023-10-09T07:41:30;100777.25;;;16.04;94.40
61384;BME280;63511;49.346;8.798;2023-10-09T07:44:04;100783.28;;;16.06;97.08
61384;BME280;63511;49.346;8.798;2023-10-09T07:46:45;100777.88;;;16.16;96.48
61384;BME280;63511;49.346;8.798;2023-10-09T07:49:38;100791.78;;;16.55;95.05
61384;BME280;63511;49.346;8.798;2023-10-09T07:52:03;100754.66;;;16.10;98.80
61384;BME280;63511;49.346;8.798;2023-10-09T07:54:31;100763.09;;;16.09;100.00
61384;BME280;63511;49.346;8.798;2023-10-09T07:56:58;100770.50;;;16.21;100.00
61384;BME280;63511;49.346;8.798;2023-10-09T07:59:35;100769.66;;;16.22;99.60
61384;BME280;63511;49.346;8.798;2023-10-09T08:02:06;100786.94;;;16.44;96.78
61384;BME280;63511;49.346;8.798;2023-10-09T08:04:39;100801.47;;;16.61;95.54
61384;BME280;63511;49.346;8.798;2023-10-09T08:07:13;100790.91;;;16.71;95.35
61384;BME280;63511;49.346;8.798;2023-10-09T08:09:44;100752.69;;;16.39;98.58
61384;BME280;63511;49.346;8.798;2023-10-09T08:12:12;100795.59;;;16.80;96.16
61384;BME280;63511;49.346;8.798;2023-10-09T08:14:57;100775.22;;;16.64;96.35
61384;BME280;63511;49.346;8.798;2023-10-09T08:17:45;100775.31;;;16.65;95.59
61384;BME280;63511;49.346;8.798;2023-10-09T08:20:16;100800.06;;;17.02;94.03
61384;BME280;63511;49.346;8.798;2023-10-09T08:22:42;100794.31;;;17.23;92.03
61384;BME280;63511;49.346;8.798;2023-10-09T08:25:08;100790.16;;;17.25;92.75
61384;BME280;63511;49.346;8.798;2023-10-09T08:27:51;100793.50;;;17.42;90.52
61384;BME280;63511;49.346;8.798;2023-10-09T08:30:21;100778.38;;;17.10;93.53
61384;BME280;63511;49.346;8.798;2023-10-09T08:33:05;100800.16;;;17.21;96.38
61384;BME280;63511;49.346;8.798;2023-10-09T08:35:53;100818.63;;;17.68;94.70
61384;BME280;63511;49.346;8.798;2023-10-09T08:38:21;100791.41;;;17.33;98.50
61384;BME280;63511;49.346;8.798;2023-10-09T08:40:49;100817.56;;;17.82;95.73
61384;BME280;63511;49.346;8.798;2023-10-09T08:43:16;100800.50;;;17.81;94.81
61384;BME280;63511;49.346;8.798;2023-10-09T08:45:47;100780.53;;;17.55;97.10
61384;BME280;63511;49.346;8.798;2023-10-09T08:48:13;100794.56;;;17.82;97.17
61384;BME280;63511;49.346;8.798;2023-10-09T08:50:41;100769.00;;;17.82;96.71
61384;BME280;63511;49.346;8.798;2023-10-09T08:53:08;100800.91;;;18.10;96.86
61384;BME280;63511;49.346;8.798;2023-10-09T08:55:36;100785.59;;;18.10;94.39
61384;BME280;63511;49.346;8.798;2023-10-09T08:58:03;100776.03;;;18.06;94.60
61384;BME280;63511;49.346;8.798;2023-10-09T09:00:35;100807.09;;;18.34;93.39
61384;BME280;63511;49.346;8.798;2023-10-09T09:03:03;100789.72;;;18.46;90.75
61384;BME280;63511;49.346;8.798;2023-10-09T09:05:31;100796.66;;;18.68;90.13
61384;BME280;63511;49.346;8.798;2023-10-09T09:08:01;100810.53;;;18.94;91.65
61384;BME280;63511;49.346;8.798;2023-10-09T09:10:27;100814.47;;;19.27;89.58
61384;BME280;63511;49.346;8.798;2023-10-09T09:13:00;100804.25;;;19.27;89.21
61384;BME280;63511;49.346;8.798;2023-10-09T09:15:28;100778.41;;;18.80;92.37
61384;BME280;63511;49.346;8.798;2023-10-09T09:18:04;100792.63;;;18.94;92.40
61384;BME280;63511;49.346;8.798;2023-10-09T09:20:36;100795.09;;;19.13;90.63
61384;BME280;63511;49.346;8.798;2023-10-09T09:23:05;100801.09;;;19.34;89.78
61384;BME280;63511;49.346;8.798;2023-10-09T09:25:40;100786.53;;;19.33;89.97
61384;BME280;63511;49.346;8.798;2023-10-09T09:28:09;100773.94;;;19.17;90.33
61384;BME280;63511;49.346;8.798;2023-10-09T09:30:38;100768.59;;;19.11;91.15
61384;BME280;63511;49.346;8.798;2023-10-09T09:33:19;100798.69;;;19.39;91.78
61384;BME280;63511;49.346;8.798;2023-10-09T09:35:56;100822.50;;;19.79;90.37
61384;BME280;63511;49.346;8.798;2023-10-09T09:38:24;100813.59;;;19.92;88.93
61384;BME280;63511;49.346;8.798;2023-10-09T09:40:52;100814.53;;;20.18;89.25
61384;BME280;63511;49.346;8.798;2023-10-09T09:43:20;100811.19;;;20.43;88.16
61384;BME280;63511;49.346;8.798;2023-10-09T09:45:48;100808.28;;;20.57;89.40
61384;BME280;63511;49.346;8.798;2023-10-09T09:48:16;100807.94;;;20.72;87.41
61384;BME280;63511;49.346;8.798;2023-10-09T09:50:44;100789.47;;;20.82;88.93
61384;BME280;63511;49.346;8.798;2023-10-09T09:53:12;100732.84;;;20.28;88.29
61384;BME280;63511;49.346;8.798;2023-10-09T09:55:42;100751.47;;;20.23;86.00
61384;BME280;63511;49.346;8.798;2023-10-09T09:58:17;100784.78;;;20.70;85.14
61384;BME280;63511;49.346;8.798;2023-10-09T10:00:45;100772.53;;;20.62;86.10
61384;BME280;63511;49.346;8.798;2023-10-09T10:03:18;100752.03;;;20.38;86.99
61384;BME280;63511;49.346;8.798;2023-10-09T10:05:47;100771.28;;;20.51;86.79
61384;BME280;63511;49.346;8.798;2023-10-09T10:08:15;100795.38;;;21.06;82.48
61384;BME280;63511;49.346;8.798;2023-10-09T10:10:44;100800.16;;;21.21;80.61
61384;BME280;63511;49.346;8.798;2023-10-09T10:13:15;100775.16;;;21.15;79.83
61384;BME280;63511;49.346;8.798;2023-10-09T10:16:00;100783.53;;;21.37;82.17
61384;BME280;63511;49.346;8.798;2023-10-09T10:18:30;100779.22;;;21.36;77.11
61384;BME280;63511;49.346;8.798;2023-10-09T10:21:11;100763.88;;;21.12;79.88
61384;BME280;63511;49.346;8.798;2023-10-09T10:23:41;100767.00;;;21.02;83.32
61384;BME280;63511;49.346;8.798;2023-10-09T10:26:18;100748.53;;;20.87;84.46
61384;BME280;63511;49.346;8.798;2023-10-09T10:34:12;100736.47;;;20.59;86.03
61384;BME280;63511;49.346;8.798;2023-10-09T10:36:40;100764.50;;;20.78;84.47
61384;BME280;63511;49.346;8.798;2023-10-09T10:39:09;100779.72;;;20.99;83.99
61384;BME280;63511;49.346;8.798;2023-10-09T10:41:36;100773.97;;;21.06;83.57
61384;BME280;63511;49.346;8.798;2023-10-09T10:44:16;100770.53;;;21.05;85.50
61384;BME280;63511;49.346;8.798;2023-10-09T10:47:01;100786.59;;;21.25;85.43
61384;BME280;63511;49.346;8.798;2023-10-09T10:49:30;100772.22;;;21.05;83.97
61384;BME280;63511;49.346;8.798;2023-10-09T10:52:04;100787.75;;;21.35;86.28
61384;BME280;63511;49.346;8.798;2023-10-09T10:54:42;100775.31;;;21.20;88.06
61384;BME280;63511;49.346;8.798;2023-10-09T10:57:18;100769.66;;;21.05;84.92
61384;BME280;63511;49.346;8.798;2023-10-09T11:00:18;100772.72;;;21.20;83.27
61384;BME280;63511;49.346;8.798;2023-10-09T11:02:58;100788.25;;;21.23;83.11
61384;BME280;63511;49.346;8.798;2023-10-09T11:05:38;100781.53;;;21.01;85.78
61384;BME280;63511;49.346;8.798;2023-10-09T11:08:10;100804.75;;;21.58;85.17
61384;BME280;63511;49.346;8.798;2023-10-09T11:10:36;100810.84;;;21.90;81.27
61384;BME280;63511;49.346;8.798;2023-10-09T11:13:20;100804.69;;;22.13;83.28
61384;BME280;63511;49.346;8.798;2023-10-09T11:15:58;100778.06;;;22.13;84.29
61384;BME280;63511;49.346;8.798;2023-10-09T11:18:39;100792.03;;;22.21;85.90
61384;BME280;63511;49.346;8.798;2023-10-09T11:21:08;100778.72;;;22.35;81.58
61384;BME280;63511;49.346;8.798;2023-10-09T11:23:58;100783.72;;;22.62;82.51
61384;BME280;63511;49.346;8.798;2023-10-09T11:26:45;100780.16;;;22.90;77.38
61384;BME280;63511;49.346;8.798;2023-10-09T11:29:19;100736.16;;;22.48;79.89
61384;BME280;63511;49.346;8.798;2023-10-09T11:31:58;100747.31;;;22.81;77.40
61384;BME280;63511;49.346;8.798;2023-10-09T11:34:24;100735.97;;;22.73;75.05
61384;BME280;63511;49.346;8.798;2023-10-09T11:36:55;100722.47;;;22.83;73.83
61384;BME280;63511;49.346;8.798;2023-10-09T11:39:27;100731.69;;;23.10;72.05
61384;BME280;63511;49.346;8.798;2023-10-09T11:42:17;100703.34;;;23.11;71.57
61384;BME280;63511;49.346;8.798;2023-10-09T11:45:00;100668.88;;;22.69;71.36
61384;BME280;63511;49.346;8.798;2023-10-09T11:47:44;100677.97;;;22.89;72.68
61384;BME280;63511;49.346;8.798;2023-10-09T11:50:19;100669.63;;;23.01;72.32
61384;BME280;63511;49.346;8.798;2023-10-09T11:52:54;100658.22;;;22.90;72.43
61384;BME280;63511;49.346;8.798;2023-10-09T11:55:35;100661.81;;;22.62;69.38
61384;BME280;63511;49.346;8.798;2023-10-09T11:58:01;100686.75;;;22.99;68.49
61384;BME280;63511;49.346;8.798;2023-10-09T12:00:29;100671.03;;;22.86;65.68
61384;BME280;63511;49.346;8.798;2023-10-09T12:03:09;100702.72;;;23.20;65.79
61384;BME280;63511;49.346;8.798;2023-10-09T12:05:36;100685.31;;;23.10;67.36
61384;BME280;63511;49.346;8.798;2023-10-09T12:08:02;100691.63;;;23.24;64.01
61384;BME280;63511;49.346;8.798;2023-10-09T12:10:34;100696.72;;;23.60;64.93
61384;BME280;63511;49.346;8.798;2023-10-09T12:13:03;100693.28;;;23.61;68.50
61384;BME280;63511;49.346;8.798;2023-10-09T12:15:30;100695.63;;;23.94;68.58
61384;BME280;63511;49.346;8.798;2023-10-09T12:18:02;100688.97;;;24.03;63.16
61384;BME280;63511;49.346;8.798;2023-10-09T12:20:29;100694.47;;;24.22;62.21
61384;BME280;63511;49.346;8.798;2023-10-09T12:22:59;100664.47;;;23.82;61.13
61384;BME280;63511;49.346;8.798;2023-10-09T12:25:26;100660.16;;;23.81;61.42
61384;BME280;63511;49.346;8.798;2023-10-09T12:27:57;100647.31;;;23.85;62.36
61384;BME280;63511;49.346;8.798;2023-10-09T12:30:26;100659.75;;;24.06;62.92
61384;BME280;63511;49.346;8.798;2023-10-09T12:32:53;100641.25;;;23.82;63.95
61384;BME280;63511;49.346;8.798;2023-10-09T12:35:20;100646.72;;;24.00;63.57
61384;BME280;63511;49.346;8.798;2023-10-09T12:37:46;100647.56;;;23.97;60.39
61384;BME280;63511;49.346;8.798;2023-10-09T12:40:15;100639.09;;;24.06;64.16
61384;BME280;63511;49.346;8.798;2023-10-09T12:42:49;100629.91;;;24.20;63.58
61384;BME280;63511;49.346;8.798;2023-10-09T12:45:17;100624.72;;;24.17;59.47
61384;BME280;63511;49.346;8.798;2023-10-09T12:47:45;100638.84;;;24.39;58.24
61384;BME280;63511;49.346;8.798;2023-10-09T12:50:12;100629.47;;;24.44;58.31
61384;BME280;63511;49.346;8.798;2023-10-09T12:52:39;100633.72;;;24.42;57.27
61384;BME280;63511;49.346;8.798;2023-10-09T12:55:06;100630.50;;;24.56;59.01
61384;BME280;63511;49.346;8.798;2023-10-09T12:57:34;100623.59;;;24.54;57.99
61384;BME280;63511;49.346;8.798;2023-10-09T13:00:01;100626.94;;;24.48;55.12
61384;BME280;63511;49.346;8.798;2023-10-09T13:02:37;100616.66;;;24.50;52.61
61384;BME280;63511;49.346;8.798;2023-10-09T13:05:08;100642.09;;;24.81;54.40
61384;BME280;63511;49.346;8.798;2023-10-09T13:07:50;100623.13;;;24.82;53.15
61384;BME280;63511;49.346;8.798;2023-10-09T13:10:16;100616.44;;;24.93;53.23
61384;BME280;63511;49.346;8.798;2023-10-09T13:12:42;100620.28;;;25.23;52.36
61384;BME280;63511;49.346;8.798;2023-10-09T13:15:09;100606.50;;;25.25;53.41
61384;BME280;63511;49.346;8.798;2023-10-09T13:17:37;100594.41;;;25.21;53.68
61384;BME280;63511;49.346;8.798;2023-10-09T13:20:05;100603.88;;;25.24;54.22
61384;BME280;63511;49.346;8.798;2023-10-09T13:22:37;100621.44;;;25.51;53.48
61384;BME280;63511;49.346;8.798;2023-10-09T13:25:04;100607.53;;;25.39;52.88
61384;BME280;63511;49.346;8.798;2023-10-09T13:27:31;100604.00;;;25.31;50.24
61384;BME280;63511;49.346;8.798;2023-10-09T13:29:59;100587.41;;;25.13;50.90
61384;BME280;63511;49.346;8.798;2023-10-09T13:32:30;100590.09;;;25.23;51.69
61384;BME280;63511;49.346;8.798;2023-10-09T13:35:00;100608.72;;;25.66;52.94
61384;BME280;63511;49.346;8.798;2023-10-09T13:37:28;100587.00;;;25.55;53.48